createdAt,value
2023-03-04T00:02:54.430Z,72.75
2023-03-04T00:05:59.436Z,73.38
2023-03-04T00:09:14.642Z,72.96
2023-03-04T00:12:26.331Z,73.20
2023-03-04T00:15:45.385Z,73.10
2023-03-04T00:18:52.535Z,72.80
2023-03-04T00:22:04.385Z,73.01
2023-03-04T00:25:10.658Z,73.15
2023-03-04T00:28:14.274Z,73.38
2023-03-04T00:31:22.500Z,73.60
2023-03-04T00:34:28.076Z,73.36
2023-03-04T00:37:31.101Z,74.15
2023-03-04T00:40:37.033Z,72.84
2023-03-04T00:43:41.194Z,73.19
2023-03-04T00:46:47.263Z,73.76
2023-03-04T00:49:55.718Z,73.69
2023-03-04T00:53:02.384Z,74.74
2023-03-04T00:56:05.202Z,74.83
2023-03-04T00:59:09.979Z,74.01
2023-03-04T01:02:19.017Z,74.70
2023-03-04T01:05:26.597Z,74.44
2023-03-04T01:08:39.828Z,74.45
2023-03-04T01:11:44.941Z,73.78
2023-03-04T01:14:51.044Z,73.52
2023-03-04T01:17:54.880Z,73.19
2023-03-04T01:21:01.194Z,72.56
2023-03-04T01:24:16.151Z,72.82
2023-03-04T01:27:22.305Z,72.48
2023-03-04T01:30:30.158Z,72.88
2023-03-04T01:33:34.256Z,73.29
2023-03-04T01:36:37.880Z,73.83
2023-03-04T01:39:41.302Z,74.28
2023-03-04T01:42:48.650Z,74.46
2023-03-04T01:46:00.949Z,74.61
2023-03-04T01:49:10.275Z,74.56
2023-03-04T01:52:30.463Z,74.76
2023-03-04T01:55:35.615Z,74.79
2023-03-04T01:59:16.656Z,76.33
2023-03-04T02:02:22.125Z,77.03
2023-03-04T02:05:25.227Z,76.78
2023-03-04T02:08:30.564Z,76.88
2023-03-04T02:11:41.211Z,76.88
2023-03-04T02:14:51.168Z,75.94
2023-03-04T02:17:59.556Z,75.02
2023-03-04T02:21:15.824Z,74.55
2023-03-04T02:24:39.979Z,74.34
2023-03-04T02:27:44.005Z,74.55
2023-03-04T02:30:52.024Z,74.96
2023-03-04T02:33:57.666Z,75.20
2023-03-04T02:37:16.530Z,75.09
2023-03-04T02:40:35.363Z,75.79
2023-03-04T02:43:41.263Z,76.94
2023-03-04T02:47:08.660Z,78.79
2023-03-04T02:50:14.879Z,79.58
2023-03-04T02:53:19.479Z,80.08
2023-03-04T02:56:23.464Z,80.65
2023-03-04T02:59:26.403Z,80.73
2023-03-04T03:02:32.485Z,80.54
2023-03-04T03:05:42.713Z,80.30
2023-03-04T03:08:56.146Z,80.36
2023-03-04T03:12:02.703Z,80.44
2023-03-04T03:15:11.196Z,81.26
2023-03-04T03:18:17.223Z,82.38
2023-03-04T03:21:26.013Z,83.09
2023-03-04T03:24:41.454Z,83.50
2023-03-04T03:27:49.484Z,83.65
2023-03-04T03:30:56.137Z,83.61
2023-03-04T03:34:04.623Z,83.69
2023-03-04T03:37:16.013Z,84.02
2023-03-04T03:40:20.053Z,84.12
2023-03-04T03:43:22.756Z,84.26
2023-03-04T03:46:27.874Z,84.12
2023-03-04T03:49:31.028Z,84.05
2023-03-04T03:52:38.130Z,84.72
2023-03-04T03:55:47.125Z,85.10
2023-03-04T03:58:50.609Z,85.38
2023-03-04T04:01:53.251Z,85.71
2023-03-04T04:04:55.827Z,85.65
2023-03-04T04:08:00.245Z,85.32
2023-03-04T04:11:06.869Z,85.49
2023-03-04T04:14:18.617Z,85.31
2023-03-04T04:17:26.793Z,85.22
2023-03-04T04:20:38.870Z,85.04
2023-03-04T04:23:41.581Z,85.18
2023-03-04T04:26:50.411Z,85.47
2023-03-04T04:29:59.480Z,85.56
2023-03-04T04:33:11.030Z,85.71
2023-03-04T04:36:19.156Z,85.98
2023-03-04T04:39:22.680Z,86.51
2023-03-04T04:42:25.782Z,86.75
2023-03-04T04:45:32.654Z,87.41
2023-03-04T04:48:51.106Z,87.69
2023-03-04T04:51:54.300Z,87.87
2023-03-04T04:55:07.314Z,87.95
2023-03-04T04:58:32.672Z,88.37
2023-03-04T05:01:43.421Z,88.20
2023-03-04T05:04:56.887Z,87.99
2023-03-04T05:08:06.681Z,88.12
2023-03-04T05:11:15.607Z,88.70
2023-03-04T05:14:24.817Z,88.37
2023-03-04T05:17:28.333Z,88.67
2023-03-04T05:20:37.617Z,88.90
2023-03-04T05:23:45.295Z,89.08
2023-03-04T05:26:48.428Z,89.44
2023-03-04T05:29:52.466Z,89.67
2023-03-04T05:32:55.159Z,89.73
2023-03-04T05:36:00.475Z,90.05
2023-03-04T05:39:03.437Z,90.14
2023-03-04T05:42:09.950Z,90.09
2023-03-04T05:45:16.529Z,89.90
2023-03-04T05:48:29.555Z,89.73
2023-03-04T05:51:32.275Z,89.68
2023-03-04T05:54:35.630Z,89.58
2023-03-04T05:57:45.831Z,89.31
2023-03-04T06:00:54.888Z,88.80
2023-03-04T06:04:03.848Z,88.31
2023-03-04T06:07:14.409Z,87.96
2023-03-04T06:10:21.251Z,87.62
2023-03-04T06:13:36.766Z,86.83
2023-03-04T06:16:54.292Z,86.44
2023-03-04T06:20:00.931Z,86.33
2023-03-04T06:23:05.213Z,85.91
2023-03-04T06:26:21.837Z,85.76
2023-03-04T06:29:31.522Z,85.23
2023-03-04T06:32:34.403Z,84.66
2023-03-04T06:35:39.467Z,84.44
2023-03-04T06:38:45.391Z,83.85
2023-03-04T06:41:51.526Z,83.81
2023-03-04T06:45:00.558Z,83.69
2023-03-04T06:48:10.284Z,83.10
2023-03-04T06:51:28.676Z,82.78
2023-03-04T06:54:31.493Z,82.28
2023-03-04T06:57:41.111Z,81.91
2023-03-04T07:00:47.392Z,81.96
2023-03-04T07:04:01.841Z,80.97
2023-03-04T07:07:04.480Z,81.44
2023-03-04T07:10:09.809Z,82.18
2023-03-04T07:13:13.128Z,81.19
2023-03-04T07:16:24.964Z,81.37
2023-03-04T07:19:32.294Z,81.79
2023-03-04T07:22:42.481Z,81.45
2023-03-04T07:25:50.481Z,80.97
2023-03-04T07:28:55.096Z,81.49
2023-03-04T07:32:01.690Z,80.86
2023-03-04T07:35:05.428Z,80.18
2023-03-04T07:38:10.829Z,79.53
2023-03-04T07:41:13.767Z,79.19
2023-03-04T07:44:19.983Z,79.51
2023-03-04T07:47:23.338Z,78.48
2023-03-04T07:50:36.916Z,79.07
2023-03-04T07:53:49.701Z,79.13
2023-03-04T07:57:01.590Z,78.05
2023-03-04T08:00:08.152Z,77.89
2023-03-04T08:03:18.728Z,76.96
2023-03-04T08:06:25.217Z,75.72
2023-03-04T08:09:31.293Z,75.16
2023-03-04T08:12:35.171Z,74.93
2023-03-04T08:15:43.485Z,75.02
2023-03-04T08:18:56.168Z,73.88
2023-03-04T08:22:02.955Z,74.14
2023-03-04T08:25:09.172Z,74.02
2023-03-04T08:28:16.205Z,73.33
2023-03-04T08:31:21.985Z,73.35
2023-03-04T08:34:33.776Z,73.42
2023-03-04T08:37:37.008Z,73.46
2023-03-04T08:40:45.519Z,73.22
2023-03-04T08:43:51.665Z,73.45
2023-03-04T08:46:54.742Z,73.00
2023-03-04T08:50:01.437Z,73.11
2023-03-04T08:53:05.104Z,72.32
2023-03-04T08:56:11.527Z,72.03
2023-03-04T08:59:14.939Z,72.66
2023-03-04T09:02:28.272Z,71.75
2023-03-04T09:05:32.728Z,71.80
2023-03-04T09:08:35.581Z,72.16
2023-03-04T09:11:39.663Z,72.50
2023-03-04T09:14:42.685Z,71.54
2023-03-04T09:18:05.932Z,70.94
2023-03-04T09:21:14.569Z,70.05
2023-03-04T09:24:19.695Z,70.47
2023-03-04T09:27:28.197Z,70.53
2023-03-04T09:30:37.840Z,69.92
2023-03-04T09:33:43.440Z,69.85
2023-03-04T09:36:57.023Z,68.23
2023-03-04T09:40:03.244Z,68.51
2023-03-04T09:43:13.510Z,67.07
2023-03-04T09:46:47.350Z,67.98
2023-03-04T09:50:16.089Z,67.28
2023-03-04T09:53:29.902Z,67.64
2023-03-04T09:56:41.434Z,65.93
2023-03-04T10:00:14.577Z,66.31
2023-03-04T10:03:25.420Z,65.67
2023-03-04T10:06:32.505Z,65.29
2023-03-04T10:10:11.304Z,64.73
2023-03-04T10:13:19.863Z,65.71
2023-03-04T10:16:26.657Z,64.39
2023-03-04T10:19:56.265Z,64.45
2023-03-04T10:23:17.328Z,64.21
2023-03-04T10:26:33.953Z,63.71
2023-03-04T10:29:40.100Z,63.71
2023-03-04T10:33:01.088Z,63.40
2023-03-04T10:36:22.580Z,63.27
2023-03-04T10:39:37.833Z,61.59
2023-03-04T10:42:41.579Z,62.68
2023-03-04T10:45:45.982Z,62.89
2023-03-04T10:48:55.187Z,63.89
2023-03-04T10:52:04.336Z,64.63
2023-03-04T10:55:32.907Z,63.90
2023-03-04T10:58:47.837Z,65.31
2023-03-04T11:01:54.645Z,63.13
2023-03-04T11:05:08.908Z,64.25
2023-03-04T11:08:30.736Z,64.00
2023-03-04T11:11:52.543Z,63.15
2023-03-04T11:15:05.184Z,63.88
2023-03-04T11:18:11.745Z,63.61
2023-03-04T11:21:24.788Z,63.73
2023-03-04T11:24:43.493Z,63.73
2023-03-04T11:27:55.042Z,64.14
2023-03-04T11:31:08.336Z,65.25
2023-03-04T11:34:49.862Z,63.31
2023-03-04T11:38:32.913Z,63.72
2023-03-04T11:41:45.372Z,63.94
2023-03-04T11:44:55.118Z,64.81
2023-03-04T11:48:05.598Z,64.29
2023-03-04T11:51:19.898Z,64.54
2023-03-04T11:54:47.705Z,64.31
2023-03-04T11:58:43.182Z,63.99
2023-03-04T12:02:00.484Z,64.51
2023-03-04T12:05:18.676Z,63.24
2023-03-04T12:08:51.945Z,63.49
2023-03-04T12:12:29.951Z,64.26
2023-03-04T12:15:44.258Z,63.55
2023-03-04T12:19:09.680Z,63.22
2023-03-04T12:22:30.987Z,63.22
2023-03-04T12:25:58.563Z,63.68
2023-03-04T12:29:58.835Z,62.87
2023-03-04T12:33:04.610Z,62.75
2023-03-04T12:36:45.377Z,63.43
2023-03-04T12:40:16.324Z,63.57
2023-03-04T12:43:52.277Z,63.61
2023-03-04T12:47:14.459Z,62.91
2023-03-04T12:50:35.652Z,64.15
2023-03-04T12:54:00.247Z,63.92
2023-03-04T12:57:36.050Z,63.43
2023-03-04T13:01:35.698Z,63.96
2023-03-04T13:05:00.131Z,63.95
2023-03-04T13:08:14.214Z,63.35
2023-03-04T13:11:33.915Z,63.21
2023-03-04T13:14:40.989Z,62.88
2023-03-04T13:18:28.847Z,63.08
2023-03-04T13:21:31.970Z,62.75
2023-03-04T13:24:51.465Z,63.11
2023-03-04T13:28:03.258Z,62.54
2023-03-04T13:31:32.601Z,62.13
2023-03-04T13:34:42.827Z,62.27
2023-03-04T13:38:04.932Z,63.82
2023-03-04T13:41:22.632Z,63.65
2023-03-04T13:44:48.791Z,63.49
2023-03-04T13:47:51.934Z,63.57
2023-03-04T13:50:57.374Z,62.99
2023-03-04T13:54:00.513Z,62.92
2023-03-04T13:57:22.019Z,62.22
2023-03-04T14:00:25.149Z,62.94
2023-03-04T14:03:32.264Z,62.25
2023-03-04T14:06:45.669Z,62.89
2023-03-04T14:10:30.317Z,62.76
2023-03-04T14:13:36.351Z,62.53
2023-03-04T14:16:52.134Z,62.83
2023-03-04T14:20:01.372Z,63.00
2023-03-04T14:23:22.898Z,63.41
2023-03-04T14:26:31.204Z,63.89
2023-03-04T14:29:33.800Z,63.71
2023-03-04T14:32:36.658Z,63.68
2023-03-04T14:35:52.482Z,64.30
2023-03-04T14:39:02.428Z,64.11
2023-03-04T14:42:14.742Z,64.30
2023-03-04T14:45:25.143Z,64.42
2023-03-04T14:48:35.906Z,64.35
2023-03-04T14:51:47.137Z,64.41
2023-03-04T14:55:18.182Z,64.77
2023-03-04T14:58:32.496Z,64.85
2023-03-04T15:01:41.798Z,65.07
2023-03-04T15:04:51.944Z,64.81
2023-03-04T15:08:28.796Z,65.75
2023-03-04T15:12:05.672Z,65.79
2023-03-04T15:15:44.666Z,66.26
2023-03-04T15:19:25.225Z,66.59
2023-03-04T15:22:31.372Z,66.50
2023-03-04T15:25:42.997Z,67.16
2023-03-04T15:28:52.173Z,67.76
2023-03-04T15:31:55.034Z,67.76
2023-03-04T15:35:01.119Z,68.06
2023-03-04T15:38:08.623Z,68.75
2023-03-04T15:41:15.339Z,69.35
2023-03-04T15:44:20.979Z,69.95
2023-03-04T15:47:27.618Z,69.77
2023-03-04T15:50:30.883Z,70.33
2023-03-04T15:53:40.090Z,70.50
2023-03-04T15:56:43.462Z,70.95
2023-03-04T15:59:55.946Z,71.43
2023-03-04T16:03:05.068Z,71.74
2023-03-04T16:06:21.904Z,71.40
2023-03-04T16:09:38.697Z,72.35
2023-03-04T16:12:45.120Z,72.16
2023-03-04T16:15:51.925Z,72.64
2023-03-04T16:19:01.068Z,72.75
2023-03-04T16:22:04.227Z,73.16
2023-03-04T16:25:22.207Z,73.24
2023-03-04T16:28:28.617Z,73.04
2023-03-04T16:31:31.463Z,73.22
2023-03-04T16:34:34.466Z,73.35
2023-03-04T16:37:39.860Z,73.07
2023-03-04T16:40:42.671Z,73.13
2023-03-04T16:43:48.666Z,73.32
2023-03-04T16:47:00.284Z,73.09
2023-03-04T16:50:03.325Z,72.93
2023-03-04T16:53:35.518Z,72.43
2023-03-04T16:56:43.411Z,71.87
2023-03-04T16:59:53.221Z,71.74
2023-03-04T17:03:00.297Z,72.34
2023-03-04T17:06:03.193Z,72.20
2023-03-04T17:09:15.238Z,71.68
2023-03-04T17:12:18.242Z,71.91
2023-03-04T17:15:21.542Z,71.85
2023-03-04T17:18:42.294Z,71.59
2023-03-04T17:21:46.501Z,71.44
2023-03-04T17:24:55.334Z,71.73
2023-03-04T17:27:58.854Z,71.72
2023-03-04T17:31:02.182Z,71.81
2023-03-04T17:34:05.065Z,71.30
2023-03-04T17:37:12.934Z,70.96
2023-03-04T17:40:16.002Z,71.24
2023-03-04T17:43:22.502Z,71.36
2023-03-04T17:46:34.486Z,71.77
2023-03-04T17:49:49.719Z,71.86
2023-03-04T17:52:52.531Z,71.84
2023-03-04T17:56:00.529Z,72.17
2023-03-04T17:59:13.955Z,72.77
2023-03-04T18:02:22.921Z,72.94
2023-03-04T18:05:30.801Z,73.08
2023-03-04T18:08:36.526Z,72.87
2023-03-04T18:11:58.422Z,72.95
2023-03-04T18:15:05.228Z,73.36
2023-03-04T18:18:11.101Z,73.36
2023-03-04T18:21:23.488Z,73.37
2023-03-04T18:24:26.969Z,73.33
2023-03-04T18:27:36.358Z,73.40
2023-03-04T18:30:42.525Z,73.44
2023-03-04T18:33:46.595Z,73.55
2023-03-04T18:37:04.253Z,73.83
2023-03-04T18:40:09.541Z,73.89
2023-03-04T18:43:12.499Z,73.97
2023-03-04T18:46:23.076Z,74.37
2023-03-04T18:49:31.655Z,74.02
2023-03-04T18:52:34.797Z,74.08
2023-03-04T18:55:40.302Z,74.06
2023-03-04T18:58:48.950Z,74.06
2023-03-04T19:02:08.353Z,74.06
2023-03-04T19:05:21.866Z,74.13
2023-03-04T19:08:30.947Z,74.01
2023-03-04T19:11:33.924Z,74.09
2023-03-04T19:14:39.446Z,74.08
2023-03-04T19:17:54.416Z,74.00
2023-03-04T19:21:05.206Z,73.84
2023-03-04T19:24:12.506Z,73.92
2023-03-04T19:27:15.491Z,74.36
2023-03-04T19:30:21.187Z,74.15
2023-03-04T19:33:24.434Z,74.23
2023-03-04T19:36:34.779Z,73.88
2023-03-04T19:39:44.121Z,74.04
2023-03-04T19:42:47.586Z,73.89
2023-03-04T19:45:59.309Z,74.34
2023-03-04T19:49:04.894Z,74.62
2023-03-04T19:52:09.691Z,74.27
2023-03-04T19:55:28.907Z,74.07
2023-03-04T20:01:40.265Z,74.61
2023-03-04T20:04:43.248Z,74.27
2023-03-04T20:07:53.389Z,74.71
2023-03-04T20:10:56.446Z,74.51
2023-03-04T20:14:09.525Z,74.06
2023-03-04T20:17:15.552Z,74.84
2023-03-04T20:20:24.477Z,74.61
2023-03-04T20:23:30.279Z,74.65
2023-03-04T20:26:36.245Z,74.90
2023-03-04T20:29:40.636Z,75.26
2023-03-04T20:32:43.610Z,75.37
2023-03-04T20:35:48.794Z,75.52
2023-03-04T20:39:01.468Z,75.39
2023-03-04T20:42:13.122Z,75.71
2023-03-04T20:45:15.809Z,75.76
2023-03-04T20:48:34.940Z,75.54
2023-03-04T20:51:44.893Z,75.36
2023-03-04T20:54:50.606Z,75.04
2023-03-04T20:57:58.675Z,74.78
2023-03-04T21:01:05.203Z,74.76
2023-03-04T21:07:31.392Z,74.51
2023-03-04T21:10:36.160Z,74.71
2023-03-04T21:13:52.653Z,75.62
2023-03-04T21:17:15.457Z,74.96
2023-03-04T21:20:22.346Z,74.97
2023-03-04T21:23:29.760Z,73.93
2023-03-04T21:26:32.831Z,74.45
2023-03-04T21:29:51.108Z,74.63
2023-03-04T21:33:05.878Z,74.83
2023-03-04T21:36:11.014Z,75.05
2023-03-04T21:39:20.435Z,74.77
2023-03-04T21:42:26.816Z,74.91
2023-03-04T21:45:33.498Z,74.60
2023-03-04T21:48:37.919Z,73.81
2023-03-04T21:51:48.239Z,74.67
2023-03-04T21:55:02.883Z,74.40
2023-03-04T21:58:28.586Z,75.50
2023-03-04T22:01:31.382Z,75.49
2023-03-04T22:04:36.480Z,76.12
2023-03-04T22:07:52.897Z,76.09
2023-03-04T22:10:57.444Z,76.16
2023-03-04T22:14:05.773Z,76.45
2023-03-04T22:17:15.310Z,76.67
2023-03-04T22:20:25.091Z,76.27
2023-03-04T22:23:29.617Z,76.23
2023-03-04T22:26:35.222Z,75.62
2023-03-04T22:29:40.248Z,76.00
2023-03-04T22:32:52.718Z,75.92
2023-03-04T22:36:02.363Z,75.75
2023-03-04T22:39:09.107Z,75.85
2023-03-04T22:42:14.875Z,76.41
2023-03-04T22:45:20.681Z,76.29
2023-03-04T22:48:23.233Z,75.95
2023-03-04T22:51:41.572Z,76.34
2023-03-04T22:54:47.922Z,76.77
2023-03-04T22:57:52.859Z,76.49
2023-03-04T23:01:20.996Z,76.02
2023-03-04T23:08:01.120Z,76.77
2023-03-04T23:11:21.799Z,76.91
2023-03-04T23:14:24.677Z,76.59
2023-03-04T23:17:33.441Z,76.48
2023-03-04T23:20:42.557Z,76.55
2023-03-04T23:23:45.586Z,76.65
2023-03-04T23:26:54.083Z,76.53
2023-03-04T23:30:03.108Z,76.46
2023-03-04T23:33:05.853Z,76.38
2023-03-04T23:36:20.697Z,76.43
2023-03-04T23:39:40.838Z,76.32
2023-03-04T23:42:49.552Z,76.38
2023-03-04T23:45:52.056Z,76.42
2023-03-04T23:49:04.542Z,76.54
2023-03-04T23:52:18.720Z,76.26
2023-03-04T23:55:21.513Z,76.04
2023-03-04T23:58:30.279Z,76.13
